Time;durP1;ratioP1;P1;durP2;ratioP2;P2;SDS_P1;SDS_P2;PMS_P1;PMS_P2;Temp;Humidity;BMP_temperature;BMP_pressure;BME280_temperature;BME280_humidity;BME280_pressure;Samples;Min_cycle;Max_cycle;Signal;HPM_P1;HPM_P2
2023/01/16 00:01:56;;;;;;;1.23;0.63;;;;;;;8.97;57.47;99564.84;4957891;28;124260;-73
2023/01/16 00:04:24;;;;;;;1.20;0.60;;;;;;;8.94;57.18;99562.38;4933133;28;114699;-73
2023/01/16 00:06:51;;;;;;;1.10;0.90;;;;;;;8.92;57.54;99558.97;4954134;28;113682;-72
2023/01/16 00:09:18;;;;;;;2.33;0.80;;;;;;;8.88;57.50;99549.53;4952760;28;123856;-72
2023/01/16 00:11:46;;;;;;;1.42;0.77;;;;;;;8.85;57.75;99542.63;4946661;28;123611;-72
2023/01/16 00:14:14;;;;;;;2.20;1.00;;;;;;;8.83;57.48;99538.41;4956770;28;115174;-72
2023/01/16 00:16:41;;;;;;;2.65;0.90;;;;;;;8.83;58.05;99543.69;4958233;28;114183;-72
2023/01/16 00:19:08;;;;;;;1.25;0.85;;;;;;;8.81;57.91;99535.00;4954003;28;123944;-71
2023/01/16 00:21:35;;;;;;;2.55;0.80;;;;;;;8.80;57.89;99525.38;4955485;28;124779;-72
2023/01/16 00:24:02;;;;;;;2.95;0.95;;;;;;;8.79;57.86;99531.59;4950553;28;115413;-71
2023/01/16 00:26:30;;;;;;;3.50;0.80;;;;;;;8.81;57.96;99524.44;4952340;28;114700;-72
2023/01/16 00:28:58;;;;;;;2.42;0.90;;;;;;;8.82;58.15;99526.16;4955028;28;124183;-72
2023/01/16 00:31:25;;;;;;;2.95;1.33;;;;;;;8.81;58.07;99524.44;4953068;28;125458;-72
2023/01/16 00:33:52;;;;;;;2.35;0.98;;;;;;;8.80;58.25;99506.88;4968379;28;115265;-72
2023/01/16 00:36:20;;;;;;;2.53;1.15;;;;;;;8.79;58.14;99515.75;4954582;28;114378;-72
2023/01/16 00:38:47;;;;;;;4.75;1.02;;;;;;;8.76;58.30;99515.00;4937850;28;125245;-71
2023/01/16 00:41:14;;;;;;;3.92;0.90;;;;;;;8.75;58.03;99510.66;4957029;28;124925;-72
2023/01/16 00:43:41;;;;;;;1.77;0.68;;;;;;;8.74;58.42;99503.69;4947675;28;114959;-72
2023/01/16 00:46:08;;;;;;;2.25;0.82;;;;;;;8.74;58.21;99508.97;4950911;28;113711;-71
2023/01/16 00:48:35;;;;;;;3.88;1.00;;;;;;;8.72;58.44;99500.28;4961089;28;123741;-72
2023/01/16 00:51:03;;;;;;;2.80;0.90;;;;;;;8.73;58.38;99496.69;4948351;28;124738;-72
2023/01/16 00:53:30;;;;;;;1.60;0.82;;;;;;;8.72;58.39;99500.28;4927307;28;113624;-71
2023/01/16 00:55:57;;;;;;;3.13;1.00;;;;;;;8.71;58.31;99490.66;4950215;28;114778;-71
2023/01/16 00:58:24;;;;;;;3.33;1.08;;;;;;;8.71;58.33;99488.03;4960249;28;123982;-71
2023/01/16 01:00:51;;;;;;;2.92;1.15;;;;;;;8.68;58.24;99482.94;4957732;28;123438;-72
2023/01/16 01:03:19;;;;;;;3.67;1.25;;;;;;;8.67;58.31;99481.22;4955133;28;114994;-71
2023/01/16 01:05:46;;;;;;;2.47;1.17;;;;;;;8.66;58.48;99474.25;4951375;28;113572;-71
2023/01/16 01:08:13;;;;;;;3.20;1.05;;;;;;;8.64;58.30;99470.00;4950446;28;124048;-72
2023/01/16 01:10:40;;;;;;;5.97;1.30;;;;;;;8.62;58.51;99472.72;4953616;28;124481;-71
2023/01/16 01:13:07;;;;;;;4.10;1.42;;;;;;;8.59;58.28;99462.38;4950972;28;115715;-71
2023/01/16 01:15:34;;;;;;;4.07;1.33;;;;;;;8.57;58.38;99469.53;4937730;28;113811;-71
2023/01/16 01:18:02;;;;;;;3.00;1.23;;;;;;;8.54;58.15;99460.00;4950909;28;125472;-71
2023/01/16 01:20:41;;;;;;;5.30;1.73;;;;;;;8.53;58.21;99457.44;4956905;28;124734;-70
2023/01/16 01:23:08;;;;;;;5.78;1.50;;;;;;;8.50;58.13;99453.19;4954118;28;113237;-71
2023/01/16 01:25:38;;;;;;;3.30;1.27;;;;;;;8.48;58.39;99454.25;4954362;28;113851;-71
2023/01/16 01:28:05;;;;;;;4.50;1.30;;;;;;;8.46;58.36;99456.13;4952184;28;125568;-70
2023/01/16 01:30:32;;;;;;;5.28;1.25;;;;;;;8.43;58.08;99451.00;4936851;28;125436;-72
2023/01/16 01:32:59;;;;;;;4.05;1.20;;;;;;;8.39;58.13;99445.88;4951997;28;114856;-72
2023/01/16 01:35:26;;;;;;;4.38;1.15;;;;;;;8.36;58.29;99430.25;4956023;28;113721;-72
2023/01/16 01:37:53;;;;;;;5.65;1.65;;;;;;;8.35;58.46;99428.53;4960974;28;124569;-71
2023/01/16 01:40:20;;;;;;;3.38;1.52;;;;;;;8.32;58.52;99423.44;4959795;28;123932;-71
2023/01/16 01:42:51;;;;;;;5.82;1.70;;;;;;;8.32;58.28;99426.06;4937377;28;115454;-71
2023/01/16 01:45:28;;;;;;;5.45;1.90;;;;;;;8.29;58.20;99413.06;4955860;28;114360;-71
2023/01/16 01:48:04;;;;;;;7.78;1.48;;;;;;;8.27;58.36;99412.31;4962079;28;124937;-71
2023/01/16 01:50:57;;;;;;;6.95;1.50;;;;;;;8.23;58.32;99402.88;4945520;28;123654;-72
2023/01/16 01:53:35;;;;;;;6.07;1.40;;;;;;;8.19;58.09;99393.44;4954515;28;113626;-71
2023/01/16 01:56:14;;;;;;;7.00;1.48;;;;;;;8.17;58.44;99387.41;4942531;28;114904;-72
2023/01/16 01:58:44;;;;;;;4.40;1.13;;;;;;;8.14;58.24;99388.44;4940027;28;125853;-71
2023/01/16 02:01:14;;;;;;;3.65;1.17;;;;;;;8.11;58.04;99382.50;4952882;28;123688;-72
2023/01/16 02:03:48;;;;;;;2.67;0.88;;;;;;;8.07;58.36;99375.72;4944339;28;115961;-71
2023/01/16 02:06:20;;;;;;;2.53;1.40;;;;;;;8.03;58.08;99363.66;4957873;28;115203;-72
2023/01/16 02:08:51;;;;;;;5.60;1.40;;;;;;;8.00;58.32;99359.38;4950150;28;124446;-72
2023/01/16 02:11:35;;;;;;;4.47;1.30;;;;;;;7.97;58.24;99360.44;4953805;28;123622;-71
2023/01/16 02:14:07;;;;;;;5.10;1.02;;;;;;;7.93;58.60;99340.47;4949403;28;114598;-72
2023/01/16 02:19:57;;;;;;;6.57;1.20;;;;;;;7.86;58.42;99336.47;4969829;28;124922;-72
2023/01/16 02:22:36;;;;;;;6.18;1.30;;;;;;;7.84;58.44;99322.53;4951839;28;124801;-72
2023/01/16 02:25:37;;;;;;;7.13;1.67;;;;;;;7.81;58.69;99333.25;4955294;28;114699;-72
2023/01/16 02:28:16;;;;;;;4.88;1.27;;;;;;;7.76;58.29;99319.47;4936495;28;115801;-72
2023/01/16 02:31:11;;;;;;;2.03;1.00;;;;;;;7.74;58.55;99310.81;4954385;28;125040;-72
2023/01/16 02:34:05;;;;;;;4.57;1.10;;;;;;;7.71;58.50;99300.47;4969592;28;123782;-72
2023/01/16 02:37:02;;;;;;;4.85;1.23;;;;;;;7.67;58.56;99298.97;4955271;28;114223;-72
2023/01/16 02:39:44;;;;;;;4.85;1.00;;;;;;;7.64;58.20;99293.84;4953998;28;114504;-72
2023/01/16 02:42:29;;;;;;;5.47;1.10;;;;;;;7.62;58.28;99290.47;4933803;28;124896;-72
2023/01/16 02:45:14;;;;;;;3.92;1.27;;;;;;;7.58;58.61;99274.81;4966974;28;125053;-71
2023/01/16 02:48:09;;;;;;;6.00;1.00;;;;;;;7.56;58.80;99275.84;4948796;28;114363;-72
2023/01/16 02:50:57;;;;;;;2.97;1.13;;;;;;;7.54;58.35;99273.31;4969586;28;115332;-72
2023/01/16 02:53:50;;;;;;;4.88;1.20;;;;;;;7.53;58.63;99271.59;4940493;28;123813;-72
2023/01/16 02:56:24;;;;;;;2.78;1.35;;;;;;;7.51;58.72;99257.66;4958626;28;123810;-72
2023/01/16 02:58:51;;;;;;;3.97;1.58;;;;;;;7.50;58.83;99245.44;4945473;28;115230;-72
2023/01/16 03:01:19;;;;;;;3.53;1.30;;;;;;;7.49;58.69;99238.47;4937157;28;115957;-72
2023/01/16 03:03:51;;;;;;;5.75;1.20;;;;;;;7.49;58.65;99225.31;4951834;28;124596;-72
2023/01/16 03:06:42;;;;;;;6.10;1.15;;;;;;;7.49;58.65;99217.41;4950715;28;123841;-72
2023/01/16 03:09:30;;;;;;;4.82;1.00;;;;;;;7.49;58.49;99217.41;4964211;28;114207;-72
2023/01/16 03:12:22;;;;;;;4.78;1.42;;;;;;;7.48;58.61;99209.56;4949057;28;114115;-72
2023/01/16 03:15:13;;;;;;;4.63;1.60;;;;;;;7.44;58.85;99193.13;4920714;28;124572;-72
2023/01/16 03:18:13;;;;;;;5.78;1.40;;;;;;;7.42;58.61;99194.97;4921060;28;125688;-72
2023/01/16 03:21:08;;;;;;;6.10;1.10;;;;;;;7.39;58.44;99195.19;4958671;28;96742;-72
2023/01/16 03:23:47;;;;;;;6.38;1.40;;;;;;;7.37;58.70;99191.78;4955383;28;114181;-72
2023/01/16 03:26:23;;;;;;;2.80;0.98;;;;;;;7.34;58.64;99178.78;4960830;28;124920;-72
2023/01/16 03:28:59;;;;;;;3.65;1.33;;;;;;;7.35;58.63;99175.25;4958372;28;125093;-72
2023/01/16 03:31:44;;;;;;;4.32;1.20;;;;;;;7.33;58.70;99171.84;4952837;28;113399;-71
2023/01/16 03:34:22;;;;;;;5.55;1.20;;;;;;;7.30;58.83;99162.31;4969244;28;114569;-72
2023/01/16 03:37:01;;;;;;;5.47;1.50;;;;;;;7.28;58.71;99155.47;4950193;28;124466;-72
2023/01/16 03:39:35;;;;;;;4.57;1.27;;;;;;;7.25;58.73;99145.94;4953133;28;122016;-72
2023/01/16 03:42:11;;;;;;;2.33;1.10;;;;;;;7.24;58.54;99143.41;4952865;28;114450;-71
2023/01/16 03:44:45;;;;;;;5.25;1.30;;;;;;;7.24;58.66;99138.16;4960076;28;115196;-70
2023/01/16 03:47:20;;;;;;;4.07;1.02;;;;;;;7.20;58.98;99133.06;4952177;28;124632;-70
2023/01/16 03:49:54;;;;;;;2.65;1.35;;;;;;;7.20;58.52;99122.53;4963524;28;123854;-70
2023/01/16 03:52:26;;;;;;;6.00;1.42;;;;;;;7.19;58.78;99120.81;4948031;28;116052;-71
2023/01/16 03:55:15;;;;;;;6.47;1.33;;;;;;;7.20;58.81;99098.81;4959089;28;116254;-70
2023/01/16 03:57:58;;;;;;;5.22;1.92;;;;;;;7.19;58.73;99097.13;4962407;28;125716;-71
2023/01/16 04:00:31;;;;;;;5.35;1.70;;;;;;;7.20;58.89;99084.81;4953804;28;124182;-70
2023/01/16 04:03:10;;;;;;;4.97;1.60;;;;;;;7.19;59.13;99078.69;4942870;28;115116;-70
2023/01/16 04:05:53;;;;;;;5.38;1.55;;;;;;;7.19;58.84;99073.44;4947161;28;114022;-70
2023/01/16 04:08:41;;;;;;;4.28;1.55;;;;;;;7.17;59.13;99059.50;4953462;28;123974;-70
2023/01/16 04:11:11;;;;;;;7.63;1.50;;;;;;;7.18;58.72;99055.94;4957051;28;123977;-71
2023/01/16 04:13:42;;;;;;;6.78;1.63;;;;;;;7.16;58.94;99044.66;4955624;28;114753;-70
2023/01/16 04:16:17;;;;;;;7.00;1.55;;;;;;;7.15;59.23;99040.31;4946142;28;113067;-70
2023/01/16 04:18:47;;;;;;;4.53;1.33;;;;;;;7.16;58.93;99031.50;4956933;28;122913;-71
2023/01/16 04:21:14;;;;;;;4.70;1.23;;;;;;;7.16;59.30;99020.97;4950920;28;123578;-72
2023/01/16 04:23:42;;;;;;;4.00;1.40;;;;;;;7.18;59.36;99008.56;4938533;28;115659;-72
2023/01/16 04:26:09;;;;;;;3.75;1.58;;;;;;;7.19;59.13;99002.34;4941845;28;113757;-72
2023/01/16 04:28:36;;;;;;;4.80;1.33;;;;;;;7.19;59.24;98991.81;4938640;28;124459;-72
2023/01/16 04:31:03;;;;;;;3.85;1.13;;;;;;;7.21;59.17;98987.31;4959027;28;124177;-72
2023/01/16 04:33:31;;;;;;;3.85;1.10;;;;;;;7.22;59.23;98986.38;4954108;28;115320;-72
2023/01/16 04:35:58;;;;;;;5.10;1.35;;;;;;;7.21;59.41;98971.53;4957366;28;113990;-72
2023/01/16 04:38:25;;;;;;;6.88;1.38;;;;;;;7.23;59.54;98963.50;4952685;28;124001;-72
2023/01/16 04:40:55;;;;;;;6.65;1.50;;;;;;;7.24;59.43;98969.66;4956030;28;123956;-72
2023/01/16 04:43:22;;;;;;;5.38;1.55;;;;;;;7.25;59.45;98955.53;4957376;28;115107;-72
2023/01/16 04:45:49;;;;;;;5.70;2.13;;;;;;;7.25;59.55;98939.72;4959978;28;117170;-71
2023/01/16 04:48:16;;;;;;;9.07;1.40;;;;;;;7.25;59.35;98930.03;4957399;28;124061;-72
2023/01/16 04:50:43;;;;;;;6.50;1.50;;;;;;;7.29;59.72;98914.88;4960209;28;124316;-72
2023/01/16 04:53:10;;;;;;;4.82;1.63;;;;;;;7.30;59.41;98911.31;4959995;28;113760;-72
2023/01/16 04:55:37;;;;;;;5.35;1.25;;;;;;;7.32;59.35;98904.19;4950673;28;115285;-72
2023/01/16 04:58:04;;;;;;;5.00;1.20;;;;;;;7.34;59.59;98894.38;4951987;28;125575;-71
2023/01/16 05:00:31;;;;;;;3.33;1.08;;;;;;;7.37;59.33;98896.84;4954606;28;124473;-72
2023/01/16 05:02:59;;;;;;;3.55;1.10;;;;;;;7.38;59.62;98878.31;4956070;28;113218;-72
2023/01/16 05:05:26;;;;;;;4.88;1.15;;;;;;;7.41;59.60;98877.25;4949608;28;113317;-72
2023/01/16 05:08:39;;;;;;;2.92;1.38;;;;;;;7.44;59.87;98870.94;4944335;28;123614;-72
2023/01/16 05:10:40;;;;;;;6.18;1.23;;;;;;;7.47;59.59;98861.06;4954908;28;124523;-72
2023/01/16 05:13:07;;;;;;;3.22;1.30;;;;;;;7.48;59.48;98852.22;4959560;28;114772;-71
2023/01/16 05:15:35;;;;;;;4.32;1.30;;;;;;;7.50;59.76;98845.06;4941163;28;115223;-72
2023/01/16 05:18:02;;;;;;;2.65;1.20;;;;;;;7.51;59.57;98836.19;4961661;28;124030;-72
2023/01/16 05:20:31;;;;;;;3.60;1.10;;;;;;;7.53;59.81;98823.78;4953608;28;122924;-72
2023/01/16 05:22:58;;;;;;;5.93;1.27;;;;;;;7.56;59.58;98818.31;4954760;28;113870;-72
2023/01/16 05:25:25;;;;;;;3.78;1.30;;;;;;;7.57;59.76;98809.47;4954240;28;114001;-72
2023/01/16 05:27:52;;;;;;;3.63;1.13;;;;;;;7.59;59.60;98804.97;4953815;28;124420;-72
2023/01/16 05:30:20;;;;;;;6.00;1.30;;;;;;;7.60;59.57;98792.63;4932481;28;123012;-72
2023/01/16 05:32:47;;;;;;;8.88;1.40;;;;;;;7.62;59.69;98784.63;4953041;28;115497;-72
2023/01/16 05:35:15;;;;;;;3.63;1.55;;;;;;;7.63;59.77;98779.25;4933859;28;115884;-72
2023/01/16 05:37:43;;;;;;;5.75;1.30;;;;;;;7.63;59.49;98770.50;4959583;28;124804;-72
2023/01/16 05:40:10;;;;;;;5.03;1.30;;;;;;;7.62;59.57;98763.53;4957313;28;126474;-72
2023/01/16 05:42:37;;;;;;;4.90;1.10;;;;;;;7.63;59.82;98759.94;4957179;28;114186;-72
2023/01/16 05:45:05;;;;;;;4.53;1.40;;;;;;;7.64;59.66;98751.13;4954985;28;114584;-72
2023/01/16 05:47:32;;;;;;;6.40;1.17;;;;;;;7.65;59.55;98744.88;4962596;28;124084;-72
2023/01/16 05:49:59;;;;;;;1.38;0.80;;;;;;;7.65;59.96;98731.72;4959403;28;123765;-72
2023/01/16 05:52:26;;;;;;;2.83;1.10;;;;;;;7.67;59.75;98729.84;4953252;28;115137;-72
2023/01/16 05:54:54;;;;;;;2.50;1.00;;;;;;;7.67;59.52;98725.41;4957499;28;113396;-71
2023/01/16 05:57:23;;;;;;;4.40;1.08;;;;;;;7.69;59.29;98706.88;4949163;28;124708;-72
2023/01/16 05:59:50;;;;;;;3.80;1.10;;;;;;;7.70;59.80;98703.28;4973238;28;124661;-72
2023/01/16 06:02:19;;;;;;;1.88;0.90;;;;;;;7.71;59.61;98683.91;4954609;28;115356;-72
2023/01/16 06:04:47;;;;;;;2.47;0.95;;;;;;;7.72;59.63;98680.28;4955686;28;113753;-71
2023/01/16 06:07:14;;;;;;;3.53;1.00;;;;;;;7.74;59.77;98673.13;4950106;28;124767;-72
2023/01/16 06:09:41;;;;;;;3.28;0.88;;;;;;;7.75;59.74;98659.03;4971866;28;124794;-71
2023/01/16 06:12:14;;;;;;;2.63;0.88;;;;;;;7.79;59.72;98650.78;4947649;28;113388;-72
2023/01/16 06:14:42;;;;;;;2.72;0.88;;;;;;;7.82;59.79;98647.13;4955495;28;115606;-72
2023/01/16 06:17:09;;;;;;;3.70;0.95;;;;;;;7.85;59.32;98633.72;4950251;28;123018;-72
2023/01/16 06:19:37;;;;;;;4.05;1.30;;;;;;;7.87;59.57;98629.16;4953973;28;124403;-72
2023/01/16 06:22:04;;;;;;;5.47;1.10;;;;;;;7.89;59.69;98619.38;4954070;28;115959;-72
2023/01/16 06:24:31;;;;;;;4.45;2.15;;;;;;;7.91;59.77;98620.13;4961244;28;113727;-72
2023/01/16 06:26:58;;;;;;;5.25;1.80;;;;;;;7.94;59.51;98616.41;4955443;28;124375;-72
2023/01/16 06:29:25;;;;;;;5.00;1.73;;;;;;;7.97;59.43;98617.06;4957495;28;124769;-72
2023/01/16 06:31:52;;;;;;;4.43;2.05;;;;;;;7.98;59.58;98618.72;4948523;28;115377;-73
2023/01/16 06:34:19;;;;;;;7.13;2.08;;;;;;;7.99;59.35;98604.59;4948231;28;114283;-72
2023/01/16 06:36:48;;;;;;;3.70;1.23;;;;;;;8.01;59.59;98609.78;4955579;28;123479;-72
2023/01/16 06:39:15;;;;;;;3.42;1.00;;;;;;;8.03;59.25;98614.94;4931701;28;124954;-72
2023/01/16 06:41:43;;;;;;;2.50;0.90;;;;;;;8.05;59.21;98607.75;4960996;28;114200;-72
2023/01/16 06:44:10;;;;;;;3.63;0.88;;;;;;;8.07;59.37;98600.59;4940005;28;114337;-72
2023/01/16 06:46:37;;;;;;;2.92;1.00;;;;;;;8.09;59.30;98588.13;4962357;28;127214;-72
2023/01/16 06:49:04;;;;;;;5.97;1.20;;;;;;;8.09;59.25;98593.41;4951975;28;124285;-72
2023/01/16 06:51:31;;;;;;;5.00;1.30;;;;;;;8.10;59.24;98579.25;4962018;28;115973;-72
2023/01/16 06:53:58;;;;;;;2.05;1.10;;;;;;;8.09;59.38;98573.16;4957492;28;114319;-72
2023/01/16 06:56:26;;;;;;;3.67;1.00;;;;;;;8.09;59.25;98572.31;4945355;28;125341;-73
2023/01/16 06:58:53;;;;;;;4.60;1.27;;;;;;;8.09;59.48;98562.59;4956490;28;124182;-72
2023/01/16 07:01:20;;;;;;;2.65;1.25;;;;;;;8.10;59.20;98558.16;4962228;28;115627;-72
2023/01/16 07:03:47;;;;;;;2.28;1.00;;;;;;;8.10;59.43;98547.63;4966320;28;112987;-72
2023/01/16 07:06:18;;;;;;;4.03;1.25;;;;;;;8.11;59.52;98538.78;4944327;28;125312;-73
2023/01/16 07:08:47;;;;;;;3.10;1.20;;;;;;;8.10;59.55;98522.13;4966284;28;124480;-72
2023/01/16 07:11:14;;;;;;;3.58;1.10;;;;;;;8.11;59.32;98522.97;4953907;28;115136;-73
2023/01/16 07:13:41;;;;;;;4.57;1.30;;;;;;;8.11;59.57;98509.78;4960209;28;114527;-73
2023/01/16 07:24:37;;;;;;;3.63;0.85;;;;;;;8.09;59.66;98445.78;4942391;28;114779;-72
2023/01/16 07:27:05;;;;;;;3.80;0.93;;;;;;;8.08;59.38;98434.41;4953226;28;124173;-73
2023/01/16 07:29:34;;;;;;;3.30;0.85;;;;;;;8.10;59.48;98427.22;4937228;28;123256;-72
2023/01/16 07:32:03;;;;;;;2.25;1.00;;;;;;;8.10;59.67;98410.53;4956127;28;115357;-72
2023/01/16 07:34:30;;;;;;;2.70;0.77;;;;;;;8.12;59.48;98408.66;4955724;28;114721;-72
2023/01/16 07:36:57;;;;;;;1.33;0.70;;;;;;;8.12;59.52;98393.66;4969790;28;123531;-73
2023/01/16 07:39:24;;;;;;;3.15;1.00;;;;;;;8.13;59.67;98391.88;4958215;28;124897;-73
2023/01/16 07:41:51;;;;;;;1.65;0.70;;;;;;;8.15;59.69;98387.31;4966015;28;114558;-73
2023/01/16 07:44:24;;;;;;;2.83;0.80;;;;;;;8.16;59.51;98389.84;4961334;28;114743;-73
2023/01/16 07:46:51;;;;;;;2.70;0.90;;;;;;;8.18;59.66;98371.28;4953088;28;124018;-73
2023/01/16 07:49:18;;;;;;;2.83;0.90;;;;;;;8.20;59.81;98358.81;4954644;28;123640;-72
2023/01/16 07:51:45;;;;;;;1.92;0.80;;;;;;;8.21;59.77;98363.13;4953640;28;115213;-73
2023/01/16 07:54:13;;;;;;;3.80;1.10;;;;;;;8.21;59.80;98360.47;4936741;28;113384;-73
2023/01/16 07:56:40;;;;;;;4.65;1.25;;;;;;;8.22;59.68;98341.09;4939289;28;125765;-72
2023/01/16 07:59:07;;;;;;;5.32;1.00;;;;;;;8.22;59.98;98327.91;4967510;28;124052;-73
2023/01/16 08:01:34;;;;;;;1.95;1.10;;;;;;;8.25;59.92;98334.72;4957027;28;115272;-73
2023/01/16 08:04:02;;;;;;;2.33;0.95;;;;;;;8.25;59.60;98319.78;4955963;28;115446;-72
2023/01/16 08:06:29;;;;;;;3.63;0.85;;;;;;;8.26;59.97;98321.44;4960176;28;125444;-73
2023/01/16 08:08:56;;;;;;;4.30;0.90;;;;;;;8.28;60.02;98311.59;4955287;28;124380;-73
2023/01/16 08:11:35;;;;;;;2.58;0.80;;;;;;;8.30;60.02;98293.88;4937432;28;113767;-73
2023/01/16 08:14:03;;;;;;;2.10;0.90;;;;;;;8.32;59.86;98299.88;4957919;28;114228;-72
2023/01/16 08:16:31;;;;;;;3.22;0.77;;;;;;;8.33;59.65;98291.00;4942965;28;123034;-73
2023/01/16 08:18:58;;;;;;;2.90;1.02;;;;;;;8.35;60.05;98283.81;4959067;28;123788;-73
2023/01/16 08:21:26;;;;;;;3.63;0.90;;;;;;;8.36;59.72;98277.59;4954973;28;114473;-72
2023/01/16 08:23:53;;;;;;;2.40;0.88;;;;;;;8.37;59.94;98271.34;4957126;28;114090;-73
2023/01/16 08:26:20;;;;;;;1.73;0.90;;;;;;;8.38;59.86;98267.75;4947168;28;123823;-72
2023/01/16 08:28:48;;;;;;;1.80;0.80;;;;;;;8.39;60.00;98264.16;4956421;28;124535;-72
2023/01/16 08:31:17;;;;;;;1.20;0.77;;;;;;;8.41;59.60;98255.28;4949292;28;112114;-73
2023/01/16 08:33:46;;;;;;;1.75;0.77;;;;;;;8.43;59.68;98243.69;4960328;28;114740;-72
2023/01/16 08:36:15;;;;;;;4.07;0.90;;;;;;;8.44;59.86;98239.25;4974723;28;122170;-73
2023/01/16 08:38:43;;;;;;;2.72;1.02;;;;;;;8.46;59.86;98242.63;4969640;28;124172;-73
2023/01/16 08:52:20;;;;;;;4.88;0.98;;;;;;;8.49;59.83;98200.16;4949277;28;116104;-73
2023/01/16 08:54:47;;;;;;;4.22;1.00;;;;;;;8.50;59.86;98196.59;4969292;28;115711;-72
2023/01/16 08:57:14;;;;;;;1.65;0.90;;;;;;;8.51;59.76;98182.41;4949027;28;125850;-72
2023/01/16 08:59:41;;;;;;;1.10;0.73;;;;;;;8.52;60.05;98182.31;4965030;28;124286;-72
2023/01/16 09:02:10;;;;;;;1.77;0.93;;;;;;;8.54;59.79;98182.19;4954002;28;115120;-73
2023/01/16 09:04:37;;;;;;;1.80;0.98;;;;;;;8.54;59.71;98166.34;4966964;28;115360;-72
2023/01/16 09:07:04;;;;;;;2.35;0.88;;;;;;;8.56;59.60;98164.44;4963464;28;124549;-72
2023/01/16 09:09:31;;;;;;;1.40;0.90;;;;;;;8.57;59.73;98156.41;4962626;28;124530;-72
2023/01/16 09:14:45;;;;;;;1.30;1.00;;;;;;;8.58;59.83;98157.22;4975281;28;113715;-73
2023/01/16 09:17:13;;;;;;;1.52;0.90;;;;;;;8.60;59.86;98162.38;4969210;28;122480;-73
2023/01/16 09:19:41;;;;;;;1.70;0.82;;;;;;;8.60;59.88;98150.03;4974740;28;124218;-73
2023/01/16 09:22:08;;;;;;;2.78;0.80;;;;;;;8.63;59.82;98160.34;4953090;28;115018;-71
2023/01/16 09:24:35;;;;;;;1.70;0.80;;;;;;;8.62;59.69;98158.66;4939110;28;114268;-71
2023/01/16 09:27:03;;;;;;;2.38;1.00;;;;;;;8.63;59.88;98152.44;4958310;28;123885;-71
2023/01/16 09:29:30;;;;;;;3.03;0.98;;;;;;;8.62;59.90;98147.28;4961992;28;125183;-71
2023/01/16 09:31:58;;;;;;;2.72;0.73;;;;;;;8.63;59.72;98144.50;4946785;28;114111;-71
2023/01/16 09:34:25;;;;;;;2.15;0.65;;;;;;;8.64;59.74;98156.72;4960789;28;115690;-71
2023/01/16 09:36:52;;;;;;;1.95;0.60;;;;;;;8.65;59.69;98152.31;4949142;28;123677;-71
2023/01/16 09:39:20;;;;;;;2.17;0.80;;;;;;;8.65;59.73;98153.16;4951620;28;125182;-71
2023/01/16 09:45:22;;;;;;;1.17;0.80;;;;;;;8.65;59.89;98136.47;4940498;28;115045;-71
2023/01/16 09:47:54;;;;;;;1.27;0.80;;;;;;;8.64;59.71;98135.63;4958432;28;125419;-71
2023/01/16 09:50:39;;;;;;;0.90;0.60;;;;;;;8.64;59.77;98135.63;4940043;28;124448;-71
2023/01/16 09:58:59;;;;;;;2.45;0.70;;;;;;;8.62;59.95;98129.63;4960669;28;124175;-71
2023/01/16 10:01:33;;;;;;;2.17;0.60;;;;;;;8.63;59.84;98123.41;4942782;28;123463;-71
2023/01/16 10:04:13;;;;;;;0.80;0.70;;;;;;;8.63;59.49;98118.13;4948667;28;114593;-72
2023/01/16 10:06:49;;;;;;;1.75;0.63;;;;;;;8.62;59.92;98105.88;4946345;28;114243;-71
2023/01/16 10:09:40;;;;;;;1.20;0.57;;;;;;;8.63;59.71;98107.56;4951476;28;124156;-71
2023/01/16 10:12:12;;;;;;;1.52;0.73;;;;;;;8.64;59.93;98098.69;4956588;28;123731;-71
2023/01/16 10:15:02;;;;;;;1.52;0.80;;;;;;;8.65;59.92;98079.28;4966162;28;114713;-71
2023/01/16 10:17:44;;;;;;;1.67;0.75;;;;;;;8.64;59.82;98077.56;4961254;28;113484;-71
2023/01/16 10:20:23;;;;;;;3.78;0.75;;;;;;;8.66;59.99;98082.72;4953427;28;125082;-71
2023/01/16 10:23:11;;;;;;;1.30;0.70;;;;;;;8.68;59.93;98079.03;4947925;28;123841;-71
2023/01/16 10:25:46;;;;;;;1.38;0.80;;;;;;;8.69;60.17;98070.13;4943945;28;114720;-71
2023/01/16 10:28:48;;;;;;;2.97;0.70;;;;;;;8.72;59.83;98063.75;4929065;28;114516;-73
2023/01/16 10:31:28;;;;;;;1.75;0.85;;;;;;;8.73;59.97;98061.00;4947806;28;124197;-71
2023/01/16 10:34:35;;;;;;;2.17;1.00;;;;;;;8.74;60.04;98057.41;4949944;28;125180;-71
2023/01/16 10:37:04;;;;;;;1.75;0.65;;;;;;;8.76;60.00;98055.47;4941128;28;114136;-71
2023/01/16 10:39:34;;;;;;;1.75;0.85;;;;;;;8.80;59.80;98049.94;4955243;28;114737;-71
2023/01/16 10:50:49;;;;;;;2.80;0.98;;;;;;;8.85;60.24;98026.63;4965109;28;116104;-71
2023/01/16 10:53:16;;;;;;;1.77;1.00;;;;;;;8.87;59.87;98024.72;4955045;28;124259;-70
2023/01/16 10:55:46;;;;;;;1.45;0.80;;;;;;;8.90;59.93;98009.44;4952722;28;125258;-69
2023/01/16 10:58:30;;;;;;;1.45;0.90;;;;;;;8.94;60.13;98012.69;4948224;28;113686;-69
2023/01/16 11:01:18;;;;;;;1.38;0.90;;;;;;;8.95;59.78;97996.72;4949530;28;114456;-70
2023/01/16 11:03:48;;;;;;;2.03;0.80;;;;;;;8.97;59.88;97993.94;4949941;28;124226;-69
2023/01/16 11:06:24;;;;;;;2.42;0.85;;;;;;;9.00;60.28;97985.75;4945431;28;124841;-69
2023/01/16 11:09:04;;;;;;;1.90;0.70;;;;;;;9.04;60.01;97981.91;4946882;28;115281;-70
2023/01/16 11:20:19;;;;;;;2.53;0.85;;;;;;;9.11;59.85;97959.28;4946144;28;116234;-71
2023/01/16 11:22:59;;;;;;;1.15;0.80;;;;;;;9.12;59.73;97945.13;4950467;28;113850;-71
2023/01/16 11:25:27;;;;;;;1.73;0.80;;;;;;;9.13;59.79;97941.50;4942835;28;125383;-70
2023/01/16 11:28:02;;;;;;;2.65;0.70;;;;;;;9.15;59.84;97929.03;4947341;28;124489;-69
2023/01/16 11:30:38;;;;;;;1.50;0.70;;;;;;;9.17;60.11;97926.22;4951328;28;116113;-70
2023/01/16 11:33:13;;;;;;;1.20;0.60;;;;;;;9.18;60.02;97932.38;4936473;28;114619;-69
2023/01/16 11:35:50;;;;;;;1.65;0.68;;;;;;;9.19;59.87;97916.38;4948400;28;124577;-69
2023/01/16 11:38:18;;;;;;;1.88;0.85;;;;;;;9.21;59.80;97909.19;4969858;28;122683;-69
2023/01/16 11:40:48;;;;;;;1.83;0.68;;;;;;;9.25;59.64;97901.81;4940137;28;113836;-69
2023/01/16 11:46:29;;;;;;;1.20;0.70;;;;;;;9.29;59.49;97887.38;4947160;28;123979;-69
2023/01/16 11:49:15;;;;;;;1.30;0.60;;;;;;;9.31;59.60;97885.44;4959308;28;123684;-70
2023/01/16 11:51:42;;;;;;;2.10;0.80;;;;;;;9.34;59.77;97882.50;4964659;28;115178;-69
2023/01/16 11:54:16;;;;;;;2.78;0.60;;;;;;;9.36;59.60;97872.66;4966960;28;114659;-69
2023/01/16 11:56:50;;;;;;;0.80;0.60;;;;;;;9.38;59.53;97867.22;4960273;28;124864;-69
2023/01/16 11:59:38;;;;;;;0.77;0.50;;;;;;;9.41;59.70;97859.88;4960410;28;123233;-69
2023/01/16 12:02:19;;;;;;;0.75;0.57;;;;;;;9.45;59.71;97850.72;4965722;28;114675;-69
2023/01/16 12:08:22;;;;;;;1.20;0.70;;;;;;;9.53;59.94;97848.25;4965115;28;124358;-70
2023/01/16 12:11:15;;;;;;;1.23;0.47;;;;;;;9.57;59.76;97837.38;4964406;28;123849;-69
2023/01/16 12:14:18;;;;;;;1.13;0.60;;;;;;;9.57;59.46;97834.72;4958063;28;114049;-70
2023/01/16 12:17:05;;;;;;;2.35;0.80;;;;;;;9.58;59.29;97824.03;4950617;28;113654;-69
2023/01/16 12:19:53;;;;;;;0.63;0.60;;;;;;;9.61;59.59;97815.03;4964556;28;123973;-69
2023/01/16 12:22:45;;;;;;;0.70;0.60;;;;;;;9.63;59.57;97813.91;4964942;28;123728;-69
2023/01/16 12:25:50;;;;;;;1.00;0.80;;;;;;;9.64;59.36;97806.78;4964246;28;115197;-69
2023/01/16 12:28:40;;;;;;;0.85;0.70;;;;;;;9.66;59.32;97799.56;4963601;28;114572;-69
2023/01/16 12:31:21;;;;;;;1.95;0.65;;;;;;;9.68;59.35;97797.63;4962468;28;124587;-70
2023/01/16 12:34:03;;;;;;;1.58;0.60;;;;;;;9.70;59.46;97795.66;4972938;28;124108;-70
2023/01/16 12:36:43;;;;;;;0.60;0.55;;;;;;;9.72;59.27;97783.19;4972334;28;113675;-69
2023/01/16 12:39:24;;;;;;;3.33;0.80;;;;;;;9.72;59.10;97778.72;4969492;28;114139;-69
2023/01/16 12:45:15;;;;;;;2.28;0.90;;;;;;;9.79;59.13;97771.03;4949827;28;123733;-69
2023/01/16 12:48:14;;;;;;;2.10;0.60;;;;;;;9.78;59.11;97753.53;4949537;28;114282;-69
2023/01/16 12:51:04;;;;;;;1.00;0.60;;;;;;;9.79;59.07;97752.53;4939665;28;113064;-69
2023/01/16 12:53:53;;;;;;;0.80;0.60;;;;;;;9.81;59.07;97750.59;4932848;28;124578;-69
2023/01/16 12:56:49;;;;;;;1.10;0.60;;;;;;;9.81;59.13;97745.31;4969482;28;123499;-69
2023/01/16 12:59:22;;;;;;;1.97;0.60;;;;;;;9.83;58.98;97748.66;4949011;28;114745;-69
2023/01/16 13:01:56;;;;;;;0.50;0.50;;;;;;;9.82;58.97;97747.00;4949088;28;114200;-69
2023/01/16 13:04:30;;;;;;;1.02;0.60;;;;;;;9.82;59.14;97739.06;4953312;28;123957;-68